SBGR/GRU METAR and TAF weather

Enter ICAO airport designator
Station Type Date Time Source
SBGR METAR 2022/12/10 01:00 UTC NOAA

SBGR 100100Z 11004KT CAVOK 22/16 Q1015


Station Type Date Time Source
SBGR Decoded METAR 2022/12/10 01:00 UTC NOAA

Guarulhos Civ / Mil , Brazil (SBGR) 23-26S 046-28W
Dec 09, 2022 - 08:00 PM EST / 2022.12.10 0100 UTC
Wind: from the ESE (110 degrees) at 5 MPH (4 KT):0
Visibility: greater than 7 mile(s):0
Temperature: 71 F (22 C)
Dew Point: 60 F (16 C)
Relative Humidity: 68%
Pressure (altimeter): 29.97 in. Hg (1015 hPa)
ob: SBGR 100100Z 11004KT CAVOK 22/16 Q1015
cycle: 1

Station Type Date Time Source
SBGR TAF 2022/12/10 00:00 UTC NOAA

TAF SBGR 092000Z 1000/1106 10003KT CAVOK TN16/1007Z TX32/1018Z
BECMG 1002/1004 8000 NSC PROB30 1007/1011 3000 BR BKN004
BECMG 1012/1014 25005KT CAVOK
BECMG 1016/1018 19010KT
BECMG 1019/1021 15005KT
BECMG 1022/1024 10005KT
BECMG 1103/1105 06005KT PROB30 1105/1106 BKN009
RMK PGE

Example: see airport list